sensor_id;sensor_type;location;lat;lon;timestamp;P1;durP1;ratioP1;P2;durP2;ratioP2
61104;SDS011;46987;32.638;-115.438;2022-08-14T00:01:59;17.45;;;5.22;;
61104;SDS011;46987;32.638;-115.438;2022-08-14T00:04:28;12.98;;;3.92;;
61104;SDS011;46987;32.638;-115.438;2022-08-14T00:06:57;11.27;;;3.75;;
61104;SDS011;46987;32.638;-115.438;2022-08-14T00:09:24;17.48;;;4.28;;
61104;SDS011;46987;32.638;-115.438;2022-08-14T00:11:51;12.82;;;3.22;;
61104;SDS011;46987;32.638;-115.438;2022-08-14T00:14:19;11.13;;;3.55;;
61104;SDS011;46987;32.638;-115.438;2022-08-14T00:16:46;10.82;;;3.85;;
61104;SDS011;46987;32.638;-115.438;2022-08-14T00:19:15;12.63;;;4.90;;
61104;SDS011;46987;32.638;-115.438;2022-08-14T00:21:42;22.15;;;6.78;;
61104;SDS011;46987;32.638;-115.438;2022-08-14T00:24:12;20.65;;;5.97;;
61104;SDS011;46987;32.638;-115.438;2022-08-14T00:31:56;21.30;;;6.20;;
61104;SDS011;46987;32.638;-115.438;2022-08-14T00:34:23;18.58;;;6.65;;
61104;SDS011;46987;32.638;-115.438;2022-08-14T00:36:51;16.77;;;6.43;;
61104;SDS011;46987;32.638;-115.438;2022-08-14T00:39:20;20.08;;;7.22;;
61104;SDS011;46987;32.638;-115.438;2022-08-14T00:41:48;14.25;;;6.38;;
61104;SDS011;46987;32.638;-115.438;2022-08-14T00:44:16;17.20;;;7.05;;
61104;SDS011;46987;32.638;-115.438;2022-08-14T00:46:43;19.92;;;13.50;;
61104;SDS011;46987;32.638;-115.438;2022-08-14T00:51:56;21.75;;;11.55;;
61104;SDS011;46987;32.638;-115.438;2022-08-14T00:54:28;21.65;;;10.65;;
61104;SDS011;46987;32.638;-115.438;2022-08-14T00:56:56;18.77;;;10.60;;
61104;SDS011;46987;32.638;-115.438;2022-08-14T00:59:24;17.33;;;9.82;;
61104;SDS011;46987;32.638;-115.438;2022-08-14T01:01:53;18.83;;;10.20;;
61104;SDS011;46987;32.638;-115.438;2022-08-14T01:04:22;21.45;;;8.90;;
61104;SDS011;46987;32.638;-115.438;2022-08-14T01:06:50;15.73;;;8.48;;
61104;SDS011;46987;32.638;-115.438;2022-08-14T01:09:19;15.50;;;6.90;;
61104;SDS011;46987;32.638;-115.438;2022-08-14T01:11:49;14.70;;;6.60;;
61104;SDS011;46987;32.638;-115.438;2022-08-14T01:14:17;14.13;;;5.65;;
61104;SDS011;46987;32.638;-115.438;2022-08-14T01:16:46;11.13;;;5.78;;
61104;SDS011;46987;32.638;-115.438;2022-08-14T01:24:32;14.68;;;5.05;;
61104;SDS011;46987;32.638;-115.438;2022-08-14T01:27:01;11.63;;;5.13;;
61104;SDS011;46987;32.638;-115.438;2022-08-14T01:29:47;15.20;;;5.55;;
61104;SDS011;46987;32.638;-115.438;2022-08-14T01:32:17;10.43;;;5.55;;
61104;SDS011;46987;32.638;-115.438;2022-08-14T01:34:46;10.90;;;6.18;;
61104;SDS011;46987;32.638;-115.438;2022-08-14T01:37:15;12.57;;;5.68;;
61104;SDS011;46987;32.638;-115.438;2022-08-14T01:39:45;10.93;;;5.53;;
61104;SDS011;46987;32.638;-115.438;2022-08-14T01:42:12;11.68;;;4.88;;
61104;SDS011;46987;32.638;-115.438;2022-08-14T01:44:40;10.10;;;4.25;;
61104;SDS011;46987;32.638;-115.438;2022-08-14T01:47:07;14.18;;;4.70;;
61104;SDS011;46987;32.638;-115.438;2022-08-14T01:49:38;11.20;;;4.47;;
61104;SDS011;46987;32.638;-115.438;2022-08-14T01:52:06;9.98;;;4.47;;
61104;SDS011;46987;32.638;-115.438;2022-08-14T01:57:19;9.45;;;3.72;;
61104;SDS011;46987;32.638;-115.438;2022-08-14T01:59:47;11.73;;;4.25;;
61104;SDS011;46987;32.638;-115.438;2022-08-14T02:02:15;14.55;;;5.07;;
61104;SDS011;46987;32.638;-115.438;2022-08-14T02:04:42;12.18;;;3.83;;
61104;SDS011;46987;32.638;-115.438;2022-08-14T02:07:10;17.08;;;3.75;;
61104;SDS011;46987;32.638;-115.438;2022-08-14T02:12:12;13.23;;;4.07;;
61104;SDS011;46987;32.638;-115.438;2022-08-14T02:14:41;13.38;;;4.72;;
61104;SDS011;46987;32.638;-115.438;2022-08-14T02:17:09;14.35;;;5.00;;
61104;SDS011;46987;32.638;-115.438;2022-08-14T02:19:38;19.52;;;6.57;;
61104;SDS011;46987;32.638;-115.438;2022-08-14T02:22:05;16.90;;;5.72;;
61104;SDS011;46987;32.638;-115.438;2022-08-14T02:24:33;13.73;;;5.88;;
61104;SDS011;46987;32.638;-115.438;2022-08-14T02:27:00;12.48;;;5.60;;
61104;SDS011;46987;32.638;-115.438;2022-08-14T02:29:28;15.48;;;5.68;;
61104;SDS011;46987;32.638;-115.438;2022-08-14T02:32:00;16.58;;;4.80;;
61104;SDS011;46987;32.638;-115.438;2022-08-14T02:34:28;13.52;;;4.35;;
61104;SDS011;46987;32.638;-115.438;2022-08-14T02:36:59;14.23;;;4.95;;
61104;SDS011;46987;32.638;-115.438;2022-08-14T02:39:27;10.82;;;5.18;;
61104;SDS011;46987;32.638;-115.438;2022-08-14T02:41:55;15.15;;;6.63;;
61104;SDS011;46987;32.638;-115.438;2022-08-14T02:44:23;13.63;;;5.97;;
61104;SDS011;46987;32.638;-115.438;2022-08-14T02:46:52;14.40;;;6.22;;
61104;SDS011;46987;32.638;-115.438;2022-08-14T02:49:24;11.48;;;5.93;;
61104;SDS011;46987;32.638;-115.438;2022-08-14T02:54:34;15.90;;;6.07;;
61104;SDS011;46987;32.638;-115.438;2022-08-14T02:57:02;20.50;;;7.85;;
61104;SDS011;46987;32.638;-115.438;2022-08-14T02:59:31;16.33;;;7.53;;
61104;SDS011;46987;32.638;-115.438;2022-08-14T03:02:01;17.75;;;7.03;;
61104;SDS011;46987;32.638;-115.438;2022-08-14T03:04:30;19.13;;;7.07;;
61104;SDS011;46987;32.638;-115.438;2022-08-14T03:06:57;19.15;;;7.60;;
61104;SDS011;46987;32.638;-115.438;2022-08-14T03:09:25;17.63;;;7.13;;
61104;SDS011;46987;32.638;-115.438;2022-08-14T03:11:52;16.13;;;6.70;;
61104;SDS011;46987;32.638;-115.438;2022-08-14T03:14:20;19.35;;;7.43;;
61104;SDS011;46987;32.638;-115.438;2022-08-14T03:16:50;22.55;;;8.13;;
61104;SDS011;46987;32.638;-115.438;2022-08-14T03:19:18;23.55;;;8.10;;
61104;SDS011;46987;32.638;-115.438;2022-08-14T03:21:48;20.08;;;7.47;;
61104;SDS011;46987;32.638;-115.438;2022-08-14T03:24:15;19.35;;;7.60;;
61104;SDS011;46987;32.638;-115.438;2022-08-14T03:26:44;21.98;;;7.35;;
61104;SDS011;46987;32.638;-115.438;2022-08-14T03:29:12;20.35;;;7.75;;
61104;SDS011;46987;32.638;-115.438;2022-08-14T03:31:44;16.65;;;6.82;;
61104;SDS011;46987;32.638;-115.438;2022-08-14T03:34:16;21.42;;;6.60;;
61104;SDS011;46987;32.638;-115.438;2022-08-14T03:36:45;11.98;;;6.07;;
61104;SDS011;46987;32.638;-115.438;2022-08-14T03:39:20;15.00;;;5.70;;
61104;SDS011;46987;32.638;-115.438;2022-08-14T03:41:48;12.77;;;4.97;;
61104;SDS011;46987;32.638;-115.438;2022-08-14T03:44:16;15.80;;;5.25;;
61104;SDS011;46987;32.638;-115.438;2022-08-14T03:46:44;14.80;;;5.00;;
61104;SDS011;46987;32.638;-115.438;2022-08-14T03:49:12;22.70;;;6.45;;
61104;SDS011;46987;32.638;-115.438;2022-08-14T03:51:42;16.40;;;6.65;;
61104;SDS011;46987;32.638;-115.438;2022-08-14T03:54:12;23.00;;;6.78;;
61104;SDS011;46987;32.638;-115.438;2022-08-14T03:56:40;25.73;;;6.00;;
61104;SDS011;46987;32.638;-115.438;2022-08-14T03:59:10;30.02;;;6.80;;
61104;SDS011;46987;32.638;-115.438;2022-08-14T04:01:39;29.80;;;7.53;;
61104;SDS011;46987;32.638;-115.438;2022-08-14T04:04:07;34.60;;;7.30;;
61104;SDS011;46987;32.638;-115.438;2022-08-14T04:06:35;30.20;;;8.20;;
61104;SDS011;46987;32.638;-115.438;2022-08-14T04:09:03;28.73;;;7.93;;
61104;SDS011;46987;32.638;-115.438;2022-08-14T04:11:32;33.47;;;8.07;;
61104;SDS011;46987;32.638;-115.438;2022-08-14T04:14:00;36.17;;;7.93;;
61104;SDS011;46987;32.638;-115.438;2022-08-14T04:16:28;37.13;;;8.25;;
61104;SDS011;46987;32.638;-115.438;2022-08-14T04:18:56;30.50;;;8.13;;
61104;SDS011;46987;32.638;-115.438;2022-08-14T04:21:25;32.00;;;7.78;;
61104;SDS011;46987;32.638;-115.438;2022-08-14T04:23:54;26.95;;;8.50;;
61104;SDS011;46987;32.638;-115.438;2022-08-14T04:26:23;39.30;;;10.13;;
61104;SDS011;46987;32.638;-115.438;2022-08-14T04:28:54;40.92;;;10.55;;
61104;SDS011;46987;32.638;-115.438;2022-08-14T04:31:22;35.78;;;9.50;;
61104;SDS011;46987;32.638;-115.438;2022-08-14T04:33:51;37.25;;;9.90;;
61104;SDS011;46987;32.638;-115.438;2022-08-14T04:36:18;43.75;;;10.85;;
61104;SDS011;46987;32.638;-115.438;2022-08-14T04:38:45;39.00;;;10.45;;
61104;SDS011;46987;32.638;-115.438;2022-08-14T04:41:31;35.65;;;10.07;;
61104;SDS011;46987;32.638;-115.438;2022-08-14T04:44:19;38.70;;;11.70;;
61104;SDS011;46987;32.638;-115.438;2022-08-14T04:46:46;37.22;;;10.45;;
61104;SDS011;46987;32.638;-115.438;2022-08-14T04:49:32;39.17;;;9.73;;
61104;SDS011;46987;32.638;-115.438;2022-08-14T04:52:01;43.88;;;10.80;;
61104;SDS011;46987;32.638;-115.438;2022-08-14T04:54:29;39.78;;;10.48;;
61104;SDS011;46987;32.638;-115.438;2022-08-14T04:56:57;38.40;;;9.32;;
61104;SDS011;46987;32.638;-115.438;2022-08-14T04:59:26;37.10;;;10.05;;
61104;SDS011;46987;32.638;-115.438;2022-08-14T05:01:53;33.78;;;9.52;;
61104;SDS011;46987;32.638;-115.438;2022-08-14T05:04:23;42.83;;;10.10;;
61104;SDS011;46987;32.638;-115.438;2022-08-14T05:06:51;34.15;;;8.60;;
61104;SDS011;46987;32.638;-115.438;2022-08-14T05:11:55;36.20;;;8.00;;
61104;SDS011;46987;32.638;-115.438;2022-08-14T05:14:22;24.88;;;7.78;;
61104;SDS011;46987;32.638;-115.438;2022-08-14T05:16:52;30.98;;;5.95;;
61104;SDS011;46987;32.638;-115.438;2022-08-14T05:19:23;31.17;;;8.35;;
61104;SDS011;46987;32.638;-115.438;2022-08-14T05:21:53;32.17;;;7.32;;
61104;SDS011;46987;32.638;-115.438;2022-08-14T05:24:24;34.80;;;7.57;;
61104;SDS011;46987;32.638;-115.438;2022-08-14T05:26:52;25.17;;;7.15;;
61104;SDS011;46987;32.638;-115.438;2022-08-14T05:29:19;30.25;;;6.65;;
61104;SDS011;46987;32.638;-115.438;2022-08-14T05:31:46;33.42;;;8.52;;
61104;SDS011;46987;32.638;-115.438;2022-08-14T05:34:15;25.95;;;7.20;;
61104;SDS011;46987;32.638;-115.438;2022-08-14T05:36:44;29.58;;;7.05;;
61104;SDS011;46987;32.638;-115.438;2022-08-14T05:39:12;32.03;;;6.85;;
61104;SDS011;46987;32.638;-115.438;2022-08-14T05:41:39;35.22;;;8.23;;
61104;SDS011;46987;32.638;-115.438;2022-08-14T05:44:07;31.90;;;8.18;;
61104;SDS011;46987;32.638;-115.438;2022-08-14T05:46:34;28.50;;;7.55;;
61104;SDS011;46987;32.638;-115.438;2022-08-14T05:49:02;30.02;;;8.02;;
61104;SDS011;46987;32.638;-115.438;2022-08-14T05:51:32;34.60;;;8.02;;
61104;SDS011;46987;32.638;-115.438;2022-08-14T05:54:00;31.63;;;7.30;;
61104;SDS011;46987;32.638;-115.438;2022-08-14T05:56:27;23.00;;;7.45;;
61104;SDS011;46987;32.638;-115.438;2022-08-14T05:58:54;30.77;;;7.15;;
61104;SDS011;46987;32.638;-115.438;2022-08-14T06:01:22;30.02;;;7.55;;
61104;SDS011;46987;32.638;-115.438;2022-08-14T06:03:49;30.00;;;7.72;;
61104;SDS011;46987;32.638;-115.438;2022-08-14T06:08:59;19.70;;;5.65;;
61104;SDS011;46987;32.638;-115.438;2022-08-14T06:11:27;17.67;;;5.70;;
61104;SDS011;46987;32.638;-115.438;2022-08-14T06:13:54;20.05;;;5.55;;
61104;SDS011;46987;32.638;-115.438;2022-08-14T06:16:22;24.38;;;5.47;;
61104;SDS011;46987;32.638;-115.438;2022-08-14T06:18:49;18.95;;;4.75;;
61104;SDS011;46987;32.638;-115.438;2022-08-14T06:21:17;20.55;;;5.10;;
61104;SDS011;46987;32.638;-115.438;2022-08-14T06:23:44;20.88;;;4.95;;
61104;SDS011;46987;32.638;-115.438;2022-08-14T06:26:14;18.67;;;5.30;;
61104;SDS011;46987;32.638;-115.438;2022-08-14T06:28:41;14.02;;;4.60;;
61104;SDS011;46987;32.638;-115.438;2022-08-14T06:31:09;15.50;;;4.30;;
61104;SDS011;46987;32.638;-115.438;2022-08-14T06:33:36;16.90;;;4.18;;
61104;SDS011;46987;32.638;-115.438;2022-08-14T06:36:05;11.02;;;3.65;;
61104;SDS011;46987;32.638;-115.438;2022-08-14T06:38:33;11.93;;;3.92;;
61104;SDS011;46987;32.638;-115.438;2022-08-14T06:41:02;17.83;;;3.90;;
61104;SDS011;46987;32.638;-115.438;2022-08-14T06:43:31;10.52;;;3.60;;
61104;SDS011;46987;32.638;-115.438;2022-08-14T06:45:58;9.77;;;3.35;;
61104;SDS011;46987;32.638;-115.438;2022-08-14T06:48:26;12.68;;;3.10;;
61104;SDS011;46987;32.638;-115.438;2022-08-14T06:50:53;7.75;;;2.45;;
61104;SDS011;46987;32.638;-115.438;2022-08-14T06:53:21;8.10;;;2.53;;
61104;SDS011;46987;32.638;-115.438;2022-08-14T06:55:49;9.10;;;2.65;;
61104;SDS011;46987;32.638;-115.438;2022-08-14T06:58:17;7.05;;;2.60;;
61104;SDS011;46987;32.638;-115.438;2022-08-14T07:00:48;7.88;;;2.70;;
61104;SDS011;46987;32.638;-115.438;2022-08-14T07:03:34;7.03;;;2.80;;
61104;SDS011;46987;32.638;-115.438;2022-08-14T07:06:19;7.72;;;2.58;;
61104;SDS011;46987;32.638;-115.438;2022-08-14T07:08:48;11.80;;;3.60;;
61104;SDS011;46987;32.638;-115.438;2022-08-14T07:11:17;7.32;;;3.15;;
61104;SDS011;46987;32.638;-115.438;2022-08-14T07:13:44;9.63;;;5.13;;
61104;SDS011;46987;32.638;-115.438;2022-08-14T07:16:13;12.35;;;8.68;;
61104;SDS011;46987;32.638;-115.438;2022-08-14T07:18:41;14.65;;;8.98;;
61104;SDS011;46987;32.638;-115.438;2022-08-14T07:21:08;11.48;;;7.05;;
61104;SDS011;46987;32.638;-115.438;2022-08-14T07:23:36;12.32;;;7.75;;
61104;SDS011;46987;32.638;-115.438;2022-08-14T07:26:04;12.68;;;7.43;;
61104;SDS011;46987;32.638;-115.438;2022-08-14T07:28:32;9.43;;;6.22;;
61104;SDS011;46987;32.638;-115.438;2022-08-14T07:31:01;10.52;;;6.18;;
61104;SDS011;46987;32.638;-115.438;2022-08-14T07:33:34;8.32;;;5.32;;
61104;SDS011;46987;32.638;-115.438;2022-08-14T07:36:04;11.73;;;5.47;;
61104;SDS011;46987;32.638;-115.438;2022-08-14T07:38:34;8.98;;;4.50;;
61104;SDS011;46987;32.638;-115.438;2022-08-14T07:41:02;9.18;;;3.88;;
61104;SDS011;46987;32.638;-115.438;2022-08-14T07:43:30;9.80;;;3.85;;
61104;SDS011;46987;32.638;-115.438;2022-08-14T07:45:58;8.27;;;3.65;;
61104;SDS011;46987;32.638;-115.438;2022-08-14T07:48:25;9.20;;;3.28;;
61104;SDS011;46987;32.638;-115.438;2022-08-14T07:50:55;9.07;;;2.72;;
61104;SDS011;46987;32.638;-115.438;2022-08-14T07:53:22;7.55;;;3.38;;
61104;SDS011;46987;32.638;-115.438;2022-08-14T07:55:50;12.10;;;3.65;;
61104;SDS011;46987;32.638;-115.438;2022-08-14T07:58:17;6.63;;;3.30;;
61104;SDS011;46987;32.638;-115.438;2022-08-14T08:00:45;8.00;;;3.00;;
61104;SDS011;46987;32.638;-115.438;2022-08-14T08:03:12;11.13;;;3.75;;
61104;SDS011;46987;32.638;-115.438;2022-08-14T08:05:40;10.73;;;3.03;;
61104;SDS011;46987;32.638;-115.438;2022-08-14T08:08:09;9.05;;;2.75;;
61104;SDS011;46987;32.638;-115.438;2022-08-14T08:10:37;12.02;;;3.60;;
61104;SDS011;46987;32.638;-115.438;2022-08-14T08:13:07;9.98;;;4.13;;
61104;SDS011;46987;32.638;-115.438;2022-08-14T08:15:37;11.07;;;4.65;;
61104;SDS011;46987;32.638;-115.438;2022-08-14T08:18:07;14.43;;;5.30;;
61104;SDS011;46987;32.638;-115.438;2022-08-14T08:20:36;12.75;;;5.60;;
61104;SDS011;46987;32.638;-115.438;2022-08-14T08:23:05;11.52;;;4.57;;
61104;SDS011;46987;32.638;-115.438;2022-08-14T08:25:35;10.77;;;5.38;;
61104;SDS011;46987;32.638;-115.438;2022-08-14T08:28:04;12.60;;;5.90;;
61104;SDS011;46987;32.638;-115.438;2022-08-14T08:30:37;12.02;;;6.00;;
61104;SDS011;46987;32.638;-115.438;2022-08-14T08:33:06;13.85;;;5.38;;
61104;SDS011;46987;32.638;-115.438;2022-08-14T08:35:36;13.20;;;5.95;;
61104;SDS011;46987;32.638;-115.438;2022-08-14T08:38:07;12.60;;;5.80;;
61104;SDS011;46987;32.638;-115.438;2022-08-14T08:40:37;11.77;;;6.25;;
61104;SDS011;46987;32.638;-115.438;2022-08-14T08:43:06;13.30;;;5.93;;
61104;SDS011;46987;32.638;-115.438;2022-08-14T08:45:41;14.82;;;6.63;;
61104;SDS011;46987;32.638;-115.438;2022-08-14T08:48:08;15.18;;;7.80;;
61104;SDS011;46987;32.638;-115.438;2022-08-14T08:50:38;17.30;;;8.27;;
61104;SDS011;46987;32.638;-115.438;2022-08-14T08:53:06;15.38;;;7.82;;
61104;SDS011;46987;32.638;-115.438;2022-08-14T08:55:37;14.57;;;6.57;;
61104;SDS011;46987;32.638;-115.438;2022-08-14T08:58:07;14.10;;;7.22;;
61104;SDS011;46987;32.638;-115.438;2022-08-14T09:00:36;13.38;;;6.13;;
61104;SDS011;46987;32.638;-115.438;2022-08-14T09:03:06;14.25;;;6.28;;
61104;SDS011;46987;32.638;-115.438;2022-08-14T09:05:34;13.82;;;5.97;;
61104;SDS011;46987;32.638;-115.438;2022-08-14T09:08:10;16.83;;;4.90;;
61104;SDS011;46987;32.638;-115.438;2022-08-14T09:10:40;11.10;;;4.93;;
61104;SDS011;46987;32.638;-115.438;2022-08-14T09:13:08;11.27;;;4.47;;
61104;SDS011;46987;32.638;-115.438;2022-08-14T09:15:39;12.05;;;4.32;;
61104;SDS011;46987;32.638;-115.438;2022-08-14T09:18:07;13.27;;;4.10;;
61104;SDS011;46987;32.638;-115.438;2022-08-14T09:20:36;8.70;;;3.55;;
61104;SDS011;46987;32.638;-115.438;2022-08-14T09:23:05;9.38;;;3.88;;
61104;SDS011;46987;32.638;-115.438;2022-08-14T09:25:33;9.98;;;3.53;;
61104;SDS011;46987;32.638;-115.438;2022-08-14T09:28:03;7.82;;;3.65;;
61104;SDS011;46987;32.638;-115.438;2022-08-14T09:30:31;9.88;;;4.40;;
61104;SDS011;46987;32.638;-115.438;2022-08-14T09:33:06;12.38;;;3.95;;
61104;SDS011;46987;32.638;-115.438;2022-08-14T09:35:59;9.82;;;3.58;;
61104;SDS011;46987;32.638;-115.438;2022-08-14T09:38:43;7.65;;;3.83;;
61104;SDS011;46987;32.638;-115.438;2022-08-14T09:41:22;10.35;;;4.18;;
61104;SDS011;46987;32.638;-115.438;2022-08-14T09:44:04;8.75;;;4.57;;
61104;SDS011;46987;32.638;-115.438;2022-08-14T09:46:34;10.57;;;4.53;;
61104;SDS011;46987;32.638;-115.438;2022-08-14T09:49:03;12.73;;;5.25;;
61104;SDS011;46987;32.638;-115.438;2022-08-14T09:51:31;10.27;;;4.47;;
61104;SDS011;46987;32.638;-115.438;2022-08-14T09:54:05;13.13;;;4.82;;
61104;SDS011;46987;32.638;-115.438;2022-08-14T09:59:13;9.75;;;4.00;;
61104;SDS011;46987;32.638;-115.438;2022-08-14T10:01:42;8.63;;;3.37;;
61104;SDS011;46987;32.638;-115.438;2022-08-14T10:04:17;9.48;;;3.95;;
61104;SDS011;46987;32.638;-115.438;2022-08-14T10:06:46;7.82;;;3.55;;
61104;SDS011;46987;32.638;-115.438;2022-08-14T10:09:13;9.18;;;3.45;;
61104;SDS011;46987;32.638;-115.438;2022-08-14T10:11:41;9.88;;;3.47;;
61104;SDS011;46987;32.638;-115.438;2022-08-14T10:14:21;5.50;;;2.70;;
61104;SDS011;46987;32.638;-115.438;2022-08-14T10:17:05;6.90;;;2.72;;
61104;SDS011;46987;32.638;-115.438;2022-08-14T10:19:32;6.35;;;2.90;;
61104;SDS011;46987;32.638;-115.438;2022-08-14T10:22:01;7.32;;;2.70;;
61104;SDS011;46987;32.638;-115.438;2022-08-14T10:24:36;9.02;;;2.90;;
61104;SDS011;46987;32.638;-115.438;2022-08-14T10:27:12;8.20;;;2.90;;
61104;SDS011;46987;32.638;-115.438;2022-08-14T10:29:46;7.68;;;2.70;;
61104;SDS011;46987;32.638;-115.438;2022-08-14T10:32:15;7.78;;;3.25;;
61104;SDS011;46987;32.638;-115.438;2022-08-14T10:34:43;6.57;;;2.70;;
61104;SDS011;46987;32.638;-115.438;2022-08-14T10:37:12;6.78;;;2.95;;
61104;SDS011;46987;32.638;-115.438;2022-08-14T10:39:45;7.07;;;2.92;;
61104;SDS011;46987;32.638;-115.438;2022-08-14T10:42:35;6.32;;;2.58;;
61104;SDS011;46987;32.638;-115.438;2022-08-14T10:45:14;6.32;;;2.83;;
61104;SDS011;46987;32.638;-115.438;2022-08-14T10:50:13;8.75;;;3.03;;
61104;SDS011;46987;32.638;-115.438;2022-08-14T10:52:41;7.97;;;3.15;;
61104;SDS011;46987;32.638;-115.438;2022-08-14T10:55:11;6.18;;;2.83;;
61104;SDS011;46987;32.638;-115.438;2022-08-14T10:57:47;7.22;;;2.60;;
61104;SDS011;46987;32.638;-115.438;2022-08-14T11:00:17;8.52;;;3.10;;
61104;SDS011;46987;32.638;-115.438;2022-08-14T11:02:55;7.30;;;2.67;;
61104;SDS011;46987;32.638;-115.438;2022-08-14T11:05:23;5.13;;;2.70;;
61104;SDS011;46987;32.638;-115.438;2022-08-14T11:07:55;5.57;;;2.25;;
61104;SDS011;46987;32.638;-115.438;2022-08-14T11:10:26;6.97;;;2.72;;
61104;SDS011;46987;32.638;-115.438;2022-08-14T11:13:05;6.28;;;2.50;;
61104;SDS011;46987;32.638;-115.438;2022-08-14T11:15:36;7.18;;;2.50;;
61104;SDS011;46987;32.638;-115.438;2022-08-14T11:18:04;7.65;;;2.78;;
61104;SDS011;46987;32.638;-115.438;2022-08-14T11:20:32;7.57;;;2.92;;
61104;SDS011;46987;32.638;-115.438;2022-08-14T11:23:00;9.35;;;2.65;;
61104;SDS011;46987;32.638;-115.438;2022-08-14T11:25:29;5.45;;;2.72;;
61104;SDS011;46987;32.638;-115.438;2022-08-14T11:27:57;7.07;;;2.60;;
61104;SDS011;46987;32.638;-115.438;2022-08-14T11:30:26;7.53;;;2.45;;
61104;SDS011;46987;32.638;-115.438;2022-08-14T11:32:57;6.43;;;2.50;;
61104;SDS011;46987;32.638;-115.438;2022-08-14T11:35:25;7.07;;;3.15;;
61104;SDS011;46987;32.638;-115.438;2022-08-14T11:37:53;6.75;;;3.00;;
61104;SDS011;46987;32.638;-115.438;2022-08-14T11:40:23;9.52;;;3.30;;
61104;SDS011;46987;32.638;-115.438;2022-08-14T11:42:52;7.35;;;3.00;;
61104;SDS011;46987;32.638;-115.438;2022-08-14T11:45:21;9.20;;;3.38;;
61104;SDS011;46987;32.638;-115.438;2022-08-14T11:47:50;8.05;;;3.00;;
61104;SDS011;46987;32.638;-115.438;2022-08-14T11:50:22;8.38;;;3.35;;
61104;SDS011;46987;32.638;-115.438;2022-08-14T11:52:50;6.60;;;2.92;;
61104;SDS011;46987;32.638;-115.438;2022-08-14T11:55:20;7.70;;;2.97;;
61104;SDS011;46987;32.638;-115.438;2022-08-14T11:57:57;5.72;;;3.03;;
61104;SDS011;46987;32.638;-115.438;2022-08-14T12:00:26;6.00;;;2.78;;
61104;SDS011;46987;32.638;-115.438;2022-08-14T12:02:54;9.18;;;3.00;;
61104;SDS011;46987;32.638;-115.438;2022-08-14T12:05:32;7.22;;;2.53;;
61104;SDS011;46987;32.638;-115.438;2022-08-14T12:08:04;9.05;;;3.63;;
61104;SDS011;46987;32.638;-115.438;2022-08-14T12:10:32;7.93;;;3.15;;
61104;SDS011;46987;32.638;-115.438;2022-08-14T12:13:09;7.07;;;3.25;;
61104;SDS011;46987;32.638;-115.438;2022-08-14T12:15:39;6.45;;;3.17;;
61104;SDS011;46987;32.638;-115.438;2022-08-14T12:18:07;9.98;;;4.05;;
61104;SDS011;46987;32.638;-115.438;2022-08-14T12:20:37;10.55;;;4.18;;
61104;SDS011;46987;32.638;-115.438;2022-08-14T12:23:20;7.20;;;3.75;;
61104;SDS011;46987;32.638;-115.438;2022-08-14T12:25:48;8.35;;;3.95;;
61104;SDS011;46987;32.638;-115.438;2022-08-14T12:28:26;9.95;;;3.85;;
61104;SDS011;46987;32.638;-115.438;2022-08-14T12:30:54;7.65;;;3.47;;
61104;SDS011;46987;32.638;-115.438;2022-08-14T12:33:22;9.88;;;3.83;;
61104;SDS011;46987;32.638;-115.438;2022-08-14T12:35:53;7.32;;;3.35;;
61104;SDS011;46987;32.638;-115.438;2022-08-14T12:38:30;8.25;;;3.90;;
61104;SDS011;46987;32.638;-115.438;2022-08-14T12:41:00;9.73;;;3.33;;
61104;SDS011;46987;32.638;-115.438;2022-08-14T12:43:27;8.45;;;3.10;;
61104;SDS011;46987;32.638;-115.438;2022-08-14T12:45:55;8.77;;;3.60;;
61104;SDS011;46987;32.638;-115.438;2022-08-14T12:48:24;7.40;;;3.05;;
61104;SDS011;46987;32.638;-115.438;2022-08-14T12:50:55;6.40;;;3.08;;
61104;SDS011;46987;32.638;-115.438;2022-08-14T12:53:32;7.30;;;3.13;;
61104;SDS011;46987;32.638;-115.438;2022-08-14T12:56:04;5.78;;;2.72;;
61104;SDS011;46987;32.638;-115.438;2022-08-14T12:58:32;7.63;;;2.80;;
61104;SDS011;46987;32.638;-115.438;2022-08-14T13:01:01;5.82;;;2.78;;
61104;SDS011;46987;32.638;-115.438;2022-08-14T13:03:29;7.47;;;3.30;;
61104;SDS011;46987;32.638;-115.438;2022-08-14T13:05:58;7.65;;;3.08;;
61104;SDS011;46987;32.638;-115.438;2022-08-14T13:08:26;6.30;;;3.30;;
61104;SDS011;46987;32.638;-115.438;2022-08-14T13:10:54;8.55;;;3.25;;
61104;SDS011;46987;32.638;-115.438;2022-08-14T13:13:24;9.20;;;3.70;;
61104;SDS011;46987;32.638;-115.438;2022-08-14T13:15:58;9.20;;;3.35;;
61104;SDS011;46987;32.638;-115.438;2022-08-14T13:18:26;7.38;;;3.50;;
61104;SDS011;46987;32.638;-115.438;2022-08-14T13:20:55;8.15;;;3.22;;
61104;SDS011;46987;32.638;-115.438;2022-08-14T13:23:27;6.47;;;3.20;;
61104;SDS011;46987;32.638;-115.438;2022-08-14T13:25:58;6.55;;;3.13;;
61104;SDS011;46987;32.638;-115.438;2022-08-14T13:28:26;7.15;;;3.15;;
61104;SDS011;46987;32.638;-115.438;2022-08-14T13:30:54;9.60;;;3.53;;
61104;SDS011;46987;32.638;-115.438;2022-08-14T13:33:25;12.05;;;3.38;;
61104;SDS011;46987;32.638;-115.438;2022-08-14T13:35:54;6.32;;;3.35;;
61104;SDS011;46987;32.638;-115.438;2022-08-14T13:38:24;8.40;;;3.03;;
61104;SDS011;46987;32.638;-115.438;2022-08-14T13:40:53;11.82;;;3.08;;
61104;SDS011;46987;32.638;-115.438;2022-08-14T13:43:21;7.57;;;2.92;;
61104;SDS011;46987;32.638;-115.438;2022-08-14T13:45:52;7.70;;;2.60;;
61104;SDS011;46987;32.638;-115.438;2022-08-14T13:48:21;7.05;;;3.33;;
61104;SDS011;46987;32.638;-115.438;2022-08-14T13:50:50;5.65;;;3.25;;
61104;SDS011;46987;32.638;-115.438;2022-08-14T13:53:22;6.47;;;3.03;;
61104;SDS011;46987;32.638;-115.438;2022-08-14T13:55:54;8.52;;;3.15;;
61104;SDS011;46987;32.638;-115.438;2022-08-14T13:58:23;7.38;;;3.25;;
61104;SDS011;46987;32.638;-115.438;2022-08-14T14:00:52;8.10;;;3.17;;
61104;SDS011;46987;32.638;-115.438;2022-08-14T14:03:21;7.20;;;3.45;;
61104;SDS011;46987;32.638;-115.438;2022-08-14T14:05:50;7.18;;;2.92;;
61104;SDS011;46987;32.638;-115.438;2022-08-14T14:08:20;8.80;;;3.33;;
61104;SDS011;46987;32.638;-115.438;2022-08-14T14:10:49;8.93;;;3.10;;
61104;SDS011;46987;32.638;-115.438;2022-08-14T14:13:19;6.65;;;3.05;;
61104;SDS011;46987;32.638;-115.438;2022-08-14T14:15:47;11.25;;;3.67;;
61104;SDS011;46987;32.638;-115.438;2022-08-14T14:18:15;8.82;;;3.10;;
61104;SDS011;46987;32.638;-115.438;2022-08-14T14:20:42;7.78;;;3.30;;
61104;SDS011;46987;32.638;-115.438;2022-08-14T14:23:11;7.45;;;2.78;;
61104;SDS011;46987;32.638;-115.438;2022-08-14T14:25:40;6.63;;;3.25;;
61104;SDS011;46987;32.638;-115.438;2022-08-14T14:28:10;11.35;;;3.13;;
61104;SDS011;46987;32.638;-115.438;2022-08-14T14:30:43;9.02;;;3.40;;
61104;SDS011;46987;32.638;-115.438;2022-08-14T14:33:13;10.50;;;3.57;;
61104;SDS011;46987;32.638;-115.438;2022-08-14T14:35:44;10.20;;;3.38;;
61104;SDS011;46987;32.638;-115.438;2022-08-14T14:38:14;8.35;;;3.10;;
61104;SDS011;46987;32.638;-115.438;2022-08-14T14:40:42;6.93;;;2.80;;
61104;SDS011;46987;32.638;-115.438;2022-08-14T14:43:13;8.02;;;3.15;;
61104;SDS011;46987;32.638;-115.438;2022-08-14T14:45:42;10.23;;;2.88;;
61104;SDS011;46987;32.638;-115.438;2022-08-14T14:48:13;6.80;;;3.00;;